sensor_id;sensor_type;location;lat;lon;timestamp;P1;durP1;ratioP1;P2;durP2;ratioP2
21816;SDS011;13247;47.504;7.382;2023-02-24T00:01:11;6.55;;;4.25;;
21816;SDS011;13247;47.504;7.382;2023-02-24T00:03:58;5.93;;;4.05;;
21816;SDS011;13247;47.504;7.382;2023-02-24T00:06:43;7.43;;;4.10;;
21816;SDS011;13247;47.504;7.382;2023-02-24T00:09:28;10.75;;;5.38;;
21816;SDS011;13247;47.504;7.382;2023-02-24T00:12:14;14.20;;;5.18;;
21816;SDS011;13247;47.504;7.382;2023-02-24T00:14:59;15.20;;;4.85;;
21816;SDS011;13247;47.504;7.382;2023-02-24T00:17:43;8.77;;;4.57;;
21816;SDS011;13247;47.504;7.382;2023-02-24T00:20:28;13.05;;;4.65;;
21816;SDS011;13247;47.504;7.382;2023-02-24T00:23:15;9.13;;;4.60;;
21816;SDS011;13247;47.504;7.382;2023-02-24T00:26:01;11.50;;;4.65;;
21816;SDS011;13247;47.504;7.382;2023-02-24T00:28:47;12.80;;;5.25;;
21816;SDS011;13247;47.504;7.382;2023-02-24T00:31:31;11.35;;;4.57;;
21816;SDS011;13247;47.504;7.382;2023-02-24T00:34:16;10.88;;;5.15;;
21816;SDS011;13247;47.504;7.382;2023-02-24T00:37:01;9.32;;;5.20;;
21816;SDS011;13247;47.504;7.382;2023-02-24T00:39:49;8.77;;;4.03;;
21816;SDS011;13247;47.504;7.382;2023-02-24T00:42:34;14.93;;;4.68;;
21816;SDS011;13247;47.504;7.382;2023-02-24T00:45:19;15.13;;;4.95;;
21816;SDS011;13247;47.504;7.382;2023-02-24T00:48:04;13.48;;;4.60;;
21816;SDS011;13247;47.504;7.382;2023-02-24T00:50:53;12.20;;;5.18;;
21816;SDS011;13247;47.504;7.382;2023-02-24T00:53:38;8.27;;;4.70;;
21816;SDS011;13247;47.504;7.382;2023-02-24T00:56:24;8.25;;;4.90;;
21816;SDS011;13247;47.504;7.382;2023-02-24T00:59:11;10.93;;;5.82;;
21816;SDS011;13247;47.504;7.382;2023-02-24T01:01:58;10.30;;;5.57;;
21816;SDS011;13247;47.504;7.382;2023-02-24T01:04:43;13.13;;;5.03;;
21816;SDS011;13247;47.504;7.382;2023-02-24T01:07:28;14.23;;;5.93;;
21816;SDS011;13247;47.504;7.382;2023-02-24T01:10:13;10.68;;;5.53;;
21816;SDS011;13247;47.504;7.382;2023-02-24T01:13:00;12.18;;;6.43;;
21816;SDS011;13247;47.504;7.382;2023-02-24T01:15:45;18.40;;;6.25;;
21816;SDS011;13247;47.504;7.382;2023-02-24T01:18:30;12.27;;;6.13;;
21816;SDS011;13247;47.504;7.382;2023-02-24T01:21:15;14.75;;;6.68;;
21816;SDS011;13247;47.504;7.382;2023-02-24T01:24:03;23.80;;;9.82;;
21816;SDS011;13247;47.504;7.382;2023-02-24T01:26:48;18.65;;;8.93;;
21816;SDS011;13247;47.504;7.382;2023-02-24T01:29:33;34.58;;;11.70;;
21816;SDS011;13247;47.504;7.382;2023-02-24T01:32:22;24.00;;;10.80;;
21816;SDS011;13247;47.504;7.382;2023-02-24T01:35:08;26.23;;;10.60;;
21816;SDS011;13247;47.504;7.382;2023-02-24T01:37:54;29.40;;;12.98;;
21816;SDS011;13247;47.504;7.382;2023-02-24T01:40:39;36.30;;;14.80;;
21816;SDS011;13247;47.504;7.382;2023-02-24T01:43:24;31.17;;;14.00;;
21816;SDS011;13247;47.504;7.382;2023-02-24T01:46:08;35.05;;;15.40;;
21816;SDS011;13247;47.504;7.382;2023-02-24T01:48:57;34.85;;;14.35;;
21816;SDS011;13247;47.504;7.382;2023-02-24T01:51:50;36.90;;;16.02;;
21816;SDS011;13247;47.504;7.382;2023-02-24T01:55:02;41.88;;;15.55;;
21816;SDS011;13247;47.504;7.382;2023-02-24T01:57:53;36.67;;;16.08;;
21816;SDS011;13247;47.504;7.382;2023-02-24T02:00:41;36.67;;;17.08;;
21816;SDS011;13247;47.504;7.382;2023-02-24T02:03:31;37.92;;;16.50;;
21816;SDS011;13247;47.504;7.382;2023-02-24T02:06:17;38.90;;;15.75;;
21816;SDS011;13247;47.504;7.382;2023-02-24T02:09:02;35.80;;;15.82;;
21816;SDS011;13247;47.504;7.382;2023-02-24T02:11:46;37.92;;;16.60;;
21816;SDS011;13247;47.504;7.382;2023-02-24T02:14:32;41.13;;;14.98;;
21816;SDS011;13247;47.504;7.382;2023-02-24T02:17:35;29.95;;;14.07;;
21816;SDS011;13247;47.504;7.382;2023-02-24T02:30:08;37.42;;;15.65;;
21816;SDS011;13247;47.504;7.382;2023-02-24T02:33:26;37.70;;;16.63;;
21816;SDS011;13247;47.504;7.382;2023-02-24T02:48:51;39.38;;;14.85;;
21816;SDS011;13247;47.504;7.382;2023-02-24T02:51:42;29.67;;;14.00;;
21816;SDS011;13247;47.504;7.382;2023-02-24T02:57:33;28.00;;;11.82;;
21816;SDS011;13247;47.504;7.382;2023-02-24T03:00:22;37.20;;;12.85;;
21816;SDS011;13247;47.504;7.382;2023-02-24T03:03:19;27.67;;;12.20;;
21816;SDS011;13247;47.504;7.382;2023-02-24T03:06:13;29.33;;;11.88;;
21816;SDS011;13247;47.504;7.382;2023-02-24T03:12:00;33.90;;;12.52;;
21816;SDS011;13247;47.504;7.382;2023-02-24T03:14:57;32.13;;;11.90;;
21816;SDS011;13247;47.504;7.382;2023-02-24T03:17:46;26.30;;;12.85;;
21816;SDS011;13247;47.504;7.382;2023-02-24T03:20:43;31.03;;;12.13;;
21816;SDS011;13247;47.504;7.382;2023-02-24T03:23:29;27.20;;;11.13;;
21816;SDS011;13247;47.504;7.382;2023-02-24T03:26:34;30.73;;;12.52;;
21816;SDS011;13247;47.504;7.382;2023-02-24T03:29:35;27.70;;;12.63;;
21816;SDS011;13247;47.504;7.382;2023-02-24T03:32:54;28.25;;;11.95;;
21816;SDS011;13247;47.504;7.382;2023-02-24T03:35:44;31.53;;;12.67;;
21816;SDS011;13247;47.504;7.382;2023-02-24T03:38:32;26.25;;;11.30;;
21816;SDS011;13247;47.504;7.382;2023-02-24T03:41:21;29.45;;;12.10;;
21816;SDS011;13247;47.504;7.382;2023-02-24T03:44:06;27.92;;;12.00;;
21816;SDS011;13247;47.504;7.382;2023-02-24T03:46:54;29.95;;;11.60;;
21816;SDS011;13247;47.504;7.382;2023-02-24T03:49:38;24.73;;;12.38;;
21816;SDS011;13247;47.504;7.382;2023-02-24T03:52:43;28.00;;;12.57;;
21816;SDS011;13247;47.504;7.382;2023-02-24T03:58:36;29.38;;;12.13;;
21816;SDS011;13247;47.504;7.382;2023-02-24T04:04:47;24.23;;;12.25;;
21816;SDS011;13247;47.504;7.382;2023-02-24T04:10:58;26.83;;;12.10;;
21816;SDS011;13247;47.504;7.382;2023-02-24T04:13:58;28.55;;;13.75;;
21816;SDS011;13247;47.504;7.382;2023-02-24T04:17:10;22.48;;;11.98;;
21816;SDS011;13247;47.504;7.382;2023-02-24T04:20:20;26.58;;;12.57;;
21816;SDS011;13247;47.504;7.382;2023-02-24T04:23:11;32.42;;;14.02;;
21816;SDS011;13247;47.504;7.382;2023-02-24T04:25:59;33.22;;;13.75;;
21816;SDS011;13247;47.504;7.382;2023-02-24T04:28:45;30.10;;;13.30;;
21816;SDS011;13247;47.504;7.382;2023-02-24T04:31:33;28.05;;;13.05;;
21816;SDS011;13247;47.504;7.382;2023-02-24T04:34:21;32.92;;;14.25;;
21816;SDS011;13247;47.504;7.382;2023-02-24T04:37:06;33.28;;;14.73;;
21816;SDS011;13247;47.504;7.382;2023-02-24T04:39:52;33.03;;;14.73;;
21816;SDS011;13247;47.504;7.382;2023-02-24T04:42:38;35.05;;;15.00;;
21816;SDS011;13247;47.504;7.382;2023-02-24T04:45:29;32.70;;;13.88;;
21816;SDS011;13247;47.504;7.382;2023-02-24T04:48:14;31.95;;;13.02;;
21816;SDS011;13247;47.504;7.382;2023-02-24T04:51:00;31.63;;;12.30;;
21816;SDS011;13247;47.504;7.382;2023-02-24T04:53:47;31.60;;;13.45;;
21816;SDS011;13247;47.504;7.382;2023-02-24T04:56:32;36.63;;;13.50;;
21816;SDS011;13247;47.504;7.382;2023-02-24T04:59:18;29.48;;;12.60;;
21816;SDS011;13247;47.504;7.382;2023-02-24T05:02:04;31.52;;;11.32;;
21816;SDS011;13247;47.504;7.382;2023-02-24T05:04:49;27.92;;;12.32;;
21816;SDS011;13247;47.504;7.382;2023-02-24T05:07:33;27.00;;;12.32;;
21816;SDS011;13247;47.504;7.382;2023-02-24T05:10:18;28.08;;;10.95;;
21816;SDS011;13247;47.504;7.382;2023-02-24T05:13:05;25.90;;;9.50;;
21816;SDS011;13247;47.504;7.382;2023-02-24T05:15:52;23.55;;;9.40;;
21816;SDS011;13247;47.504;7.382;2023-02-24T05:18:39;26.02;;;9.65;;
21816;SDS011;13247;47.504;7.382;2023-02-24T05:21:25;25.58;;;9.90;;
21816;SDS011;13247;47.504;7.382;2023-02-24T05:24:18;22.00;;;10.15;;
21816;SDS011;13247;47.504;7.382;2023-02-24T05:27:04;21.15;;;9.27;;
21816;SDS011;13247;47.504;7.382;2023-02-24T05:29:48;20.58;;;10.00;;
21816;SDS011;13247;47.504;7.382;2023-02-24T05:32:33;20.30;;;10.27;;
21816;SDS011;13247;47.504;7.382;2023-02-24T05:35:21;21.65;;;8.07;;
21816;SDS011;13247;47.504;7.382;2023-02-24T05:38:05;17.73;;;9.07;;
21816;SDS011;13247;47.504;7.382;2023-02-24T05:40:50;17.75;;;8.48;;
21816;SDS011;13247;47.504;7.382;2023-02-24T05:43:47;18.65;;;7.40;;
21816;SDS011;13247;47.504;7.382;2023-02-24T05:46:38;19.58;;;8.15;;
21816;SDS011;13247;47.504;7.382;2023-02-24T05:49:28;19.90;;;8.25;;
21816;SDS011;13247;47.504;7.382;2023-02-24T05:52:16;20.30;;;8.40;;
21816;SDS011;13247;47.504;7.382;2023-02-24T05:55:01;22.85;;;9.07;;
21816;SDS011;13247;47.504;7.382;2023-02-24T05:57:49;19.02;;;8.57;;
21816;SDS011;13247;47.504;7.382;2023-02-24T06:00:35;21.38;;;8.93;;
21816;SDS011;13247;47.504;7.382;2023-02-24T06:03:22;20.05;;;9.40;;
21816;SDS011;13247;47.504;7.382;2023-02-24T06:06:16;24.40;;;10.05;;
21816;SDS011;13247;47.504;7.382;2023-02-24T06:09:02;21.90;;;9.65;;
21816;SDS011;13247;47.504;7.382;2023-02-24T06:11:52;25.67;;;9.60;;
21816;SDS011;13247;47.504;7.382;2023-02-24T06:14:37;23.92;;;10.50;;
21816;SDS011;13247;47.504;7.382;2023-02-24T06:17:22;20.50;;;9.27;;
21816;SDS011;13247;47.504;7.382;2023-02-24T06:20:07;21.38;;;9.60;;
21816;SDS011;13247;47.504;7.382;2023-02-24T06:22:58;22.50;;;10.60;;
21816;SDS011;13247;47.504;7.382;2023-02-24T06:25:46;24.25;;;8.63;;
21816;SDS011;13247;47.504;7.382;2023-02-24T06:28:31;24.95;;;10.40;;
21816;SDS011;13247;47.504;7.382;2023-02-24T06:31:16;19.70;;;10.15;;
21816;SDS011;13247;47.504;7.382;2023-02-24T06:34:00;20.27;;;9.40;;
21816;SDS011;13247;47.504;7.382;2023-02-24T06:36:45;27.13;;;10.30;;
21816;SDS011;13247;47.504;7.382;2023-02-24T06:39:32;22.15;;;10.52;;
21816;SDS011;13247;47.504;7.382;2023-02-24T06:42:20;28.35;;;11.02;;
21816;SDS011;13247;47.504;7.382;2023-02-24T06:45:04;21.75;;;10.02;;
21816;SDS011;13247;47.504;7.382;2023-02-24T06:47:51;27.38;;;10.65;;
21816;SDS011;13247;47.504;7.382;2023-02-24T06:50:35;27.42;;;11.48;;
21816;SDS011;13247;47.504;7.382;2023-02-24T06:53:20;27.63;;;12.00;;
21816;SDS011;13247;47.504;7.382;2023-02-24T06:56:06;37.20;;;16.75;;
21816;SDS011;13247;47.504;7.382;2023-02-24T06:59:00;37.08;;;15.23;;
21816;SDS011;13247;47.504;7.382;2023-02-24T07:01:47;37.83;;;15.70;;
21816;SDS011;13247;47.504;7.382;2023-02-24T07:04:32;37.45;;;13.88;;
21816;SDS011;13247;47.504;7.382;2023-02-24T07:07:26;31.50;;;13.95;;
21816;SDS011;13247;47.504;7.382;2023-02-24T07:10:11;29.15;;;12.68;;
21816;SDS011;13247;47.504;7.382;2023-02-24T07:12:56;33.28;;;12.63;;
21816;SDS011;13247;47.504;7.382;2023-02-24T07:15:41;33.35;;;13.23;;
21816;SDS011;13247;47.504;7.382;2023-02-24T07:18:32;27.90;;;12.95;;
21816;SDS011;13247;47.504;7.382;2023-02-24T07:21:24;33.80;;;13.95;;
21816;SDS011;13247;47.504;7.382;2023-02-24T07:24:13;30.98;;;12.73;;
21816;SDS011;13247;47.504;7.382;2023-02-24T07:27:09;45.08;;;14.40;;
21816;SDS011;13247;47.504;7.382;2023-02-24T07:30:04;36.75;;;14.88;;
21816;SDS011;13247;47.504;7.382;2023-02-24T07:32:52;35.65;;;14.52;;
21816;SDS011;13247;47.504;7.382;2023-02-24T07:35:38;35.83;;;15.48;;
21816;SDS011;13247;47.504;7.382;2023-02-24T07:38:23;37.08;;;15.00;;
21816;SDS011;13247;47.504;7.382;2023-02-24T07:41:08;32.58;;;13.73;;
21816;SDS011;13247;47.504;7.382;2023-02-24T07:43:55;35.28;;;14.65;;
21816;SDS011;13247;47.504;7.382;2023-02-24T07:46:42;30.92;;;12.98;;
21816;SDS011;13247;47.504;7.382;2023-02-24T07:49:27;25.67;;;11.77;;
21816;SDS011;13247;47.504;7.382;2023-02-24T07:52:13;29.65;;;10.93;;
21816;SDS011;13247;47.504;7.382;2023-02-24T07:54:58;26.90;;;11.48;;
21816;SDS011;13247;47.504;7.382;2023-02-24T07:57:43;28.65;;;11.95;;
21816;SDS011;13247;47.504;7.382;2023-02-24T08:00:30;24.08;;;11.45;;
21816;SDS011;13247;47.504;7.382;2023-02-24T08:03:32;26.90;;;11.55;;
21816;SDS011;13247;47.504;7.382;2023-02-24T08:06:24;21.92;;;9.95;;
21816;SDS011;13247;47.504;7.382;2023-02-24T08:09:20;23.98;;;9.52;;
21816;SDS011;13247;47.504;7.382;2023-02-24T08:12:27;24.95;;;10.32;;
21816;SDS011;13247;47.504;7.382;2023-02-24T08:15:12;22.65;;;10.65;;
21816;SDS011;13247;47.504;7.382;2023-02-24T08:18:00;25.35;;;11.98;;
21816;SDS011;13247;47.504;7.382;2023-02-24T08:20:45;21.48;;;11.23;;
21816;SDS011;13247;47.504;7.382;2023-02-24T08:23:35;24.23;;;12.75;;
21816;SDS011;13247;47.504;7.382;2023-02-24T08:26:27;21.20;;;11.55;;
21816;SDS011;13247;47.504;7.382;2023-02-24T08:29:15;22.38;;;11.00;;
21816;SDS011;13247;47.504;7.382;2023-02-24T08:32:03;24.33;;;12.32;;
21816;SDS011;13247;47.504;7.382;2023-02-24T08:34:54;22.55;;;10.43;;
21816;SDS011;13247;47.504;7.382;2023-02-24T08:37:49;20.52;;;11.18;;
21816;SDS011;13247;47.504;7.382;2023-02-24T08:40:37;22.52;;;11.15;;
21816;SDS011;13247;47.504;7.382;2023-02-24T08:43:37;21.30;;;10.70;;
21816;SDS011;13247;47.504;7.382;2023-02-24T08:46:23;25.55;;;11.65;;
21816;SDS011;13247;47.504;7.382;2023-02-24T08:49:08;24.38;;;10.65;;
21816;SDS011;13247;47.504;7.382;2023-02-24T08:51:53;19.60;;;10.18;;
21816;SDS011;13247;47.504;7.382;2023-02-24T08:54:44;22.20;;;10.05;;
21816;SDS011;13247;47.504;7.382;2023-02-24T08:57:31;19.38;;;10.68;;
21816;SDS011;13247;47.504;7.382;2023-02-24T09:00:18;20.13;;;9.73;;
21816;SDS011;13247;47.504;7.382;2023-02-24T09:03:24;17.08;;;9.93;;
21816;SDS011;13247;47.504;7.382;2023-02-24T09:06:10;20.83;;;10.13;;
21816;SDS011;13247;47.504;7.382;2023-02-24T09:08:59;18.73;;;9.52;;
21816;SDS011;13247;47.504;7.382;2023-02-24T09:11:59;17.58;;;9.05;;
21816;SDS011;13247;47.504;7.382;2023-02-24T09:14:44;19.42;;;9.35;;
21816;SDS011;13247;47.504;7.382;2023-02-24T09:17:29;20.63;;;10.93;;
21816;SDS011;13247;47.504;7.382;2023-02-24T09:20:23;22.70;;;10.10;;
21816;SDS011;13247;47.504;7.382;2023-02-24T09:23:10;22.40;;;11.50;;
21816;SDS011;13247;47.504;7.382;2023-02-24T09:26:02;18.13;;;8.85;;
21816;SDS011;13247;47.504;7.382;2023-02-24T09:28:53;19.58;;;11.13;;
21816;SDS011;13247;47.504;7.382;2023-02-24T09:31:38;22.25;;;9.13;;
21816;SDS011;13247;47.504;7.382;2023-02-24T09:34:22;18.75;;;9.90;;
21816;SDS011;13247;47.504;7.382;2023-02-24T09:37:13;21.17;;;10.25;;
21816;SDS011;13247;47.504;7.382;2023-02-24T09:43:00;22.48;;;9.68;;
21816;SDS011;13247;47.504;7.382;2023-02-24T09:45:59;23.73;;;9.25;;
21816;SDS011;13247;47.504;7.382;2023-02-24T09:49:00;17.90;;;7.57;;
21816;SDS011;13247;47.504;7.382;2023-02-24T09:51:58;16.08;;;8.23;;
21816;SDS011;13247;47.504;7.382;2023-02-24T09:54:51;15.73;;;7.60;;
21816;SDS011;13247;47.504;7.382;2023-02-24T10:01:28;18.60;;;10.07;;
21816;SDS011;13247;47.504;7.382;2023-02-24T10:04:57;17.17;;;8.93;;
21816;SDS011;13247;47.504;7.382;2023-02-24T10:07:51;22.23;;;9.80;;
21816;SDS011;13247;47.504;7.382;2023-02-24T10:10:39;20.48;;;10.05;;
21816;SDS011;13247;47.504;7.382;2023-02-24T10:16:36;21.95;;;10.88;;
21816;SDS011;13247;47.504;7.382;2023-02-24T10:19:25;21.48;;;10.50;;
21816;SDS011;13247;47.504;7.382;2023-02-24T10:31:42;20.35;;;9.57;;
21816;SDS011;13247;47.504;7.382;2023-02-24T10:34:30;20.10;;;9.73;;
21816;SDS011;13247;47.504;7.382;2023-02-24T10:37:16;23.83;;;10.90;;
21816;SDS011;13247;47.504;7.382;2023-02-24T10:40:04;23.00;;;9.98;;
21816;SDS011;13247;47.504;7.382;2023-02-24T10:43:02;19.02;;;9.40;;
21816;SDS011;13247;47.504;7.382;2023-02-24T10:45:52;20.98;;;9.95;;
21816;SDS011;13247;47.504;7.382;2023-02-24T10:48:49;20.65;;;10.52;;
21816;SDS011;13247;47.504;7.382;2023-02-24T10:51:37;20.48;;;10.35;;
21816;SDS011;13247;47.504;7.382;2023-02-24T10:54:27;24.20;;;10.23;;
21816;SDS011;13247;47.504;7.382;2023-02-24T10:57:41;20.75;;;9.55;;
21816;SDS011;13247;47.504;7.382;2023-02-24T11:00:38;25.13;;;10.80;;
21816;SDS011;13247;47.504;7.382;2023-02-24T11:03:53;23.10;;;11.30;;
21816;SDS011;13247;47.504;7.382;2023-02-24T11:07:05;24.17;;;10.95;;
21816;SDS011;13247;47.504;7.382;2023-02-24T11:10:02;32.47;;;11.15;;
21816;SDS011;13247;47.504;7.382;2023-02-24T11:12:54;22.33;;;9.73;;
21816;SDS011;13247;47.504;7.382;2023-02-24T11:15:58;18.58;;;9.88;;
21816;SDS011;13247;47.504;7.382;2023-02-24T11:19:04;17.60;;;9.40;;
21816;SDS011;13247;47.504;7.382;2023-02-24T11:21:50;20.25;;;10.18;;
21816;SDS011;13247;47.504;7.382;2023-02-24T11:24:38;21.08;;;9.73;;
21816;SDS011;13247;47.504;7.382;2023-02-24T11:27:23;22.65;;;10.65;;
21816;SDS011;13247;47.504;7.382;2023-02-24T11:33:49;26.45;;;10.85;;
21816;SDS011;13247;47.504;7.382;2023-02-24T11:42:20;28.95;;;11.95;;
21816;SDS011;13247;47.504;7.382;2023-02-24T11:48:20;23.98;;;10.30;;
21816;SDS011;13247;47.504;7.382;2023-02-24T11:51:18;23.23;;;10.48;;
21816;SDS011;13247;47.504;7.382;2023-02-24T11:54:12;20.25;;;9.60;;
21816;SDS011;13247;47.504;7.382;2023-02-24T11:57:00;25.38;;;12.05;;
21816;SDS011;13247;47.504;7.382;2023-02-24T11:59:50;31.75;;;11.75;;
21816;SDS011;13247;47.504;7.382;2023-02-24T12:02:52;26.13;;;11.57;;
21816;SDS011;13247;47.504;7.382;2023-02-24T12:05:53;22.35;;;10.40;;
21816;SDS011;13247;47.504;7.382;2023-02-24T12:08:40;23.63;;;9.88;;
21816;SDS011;13247;47.504;7.382;2023-02-24T12:11:35;24.60;;;10.73;;
21816;SDS011;13247;47.504;7.382;2023-02-24T12:14:49;20.85;;;10.02;;
21816;SDS011;13247;47.504;7.382;2023-02-24T12:17:53;23.15;;;9.93;;
21816;SDS011;13247;47.504;7.382;2023-02-24T12:20:48;21.65;;;9.10;;
21816;SDS011;13247;47.504;7.382;2023-02-24T12:23:41;25.42;;;9.63;;
21816;SDS011;13247;47.504;7.382;2023-02-24T12:35:14;27.90;;;9.20;;
21816;SDS011;13247;47.504;7.382;2023-02-24T12:38:28;24.40;;;9.35;;
21816;SDS011;13247;47.504;7.382;2023-02-24T12:44:54;18.77;;;8.27;;
21816;SDS011;13247;47.504;7.382;2023-02-24T12:53:54;19.80;;;8.98;;
21816;SDS011;13247;47.504;7.382;2023-02-24T12:59:49;16.77;;;8.73;;
21816;SDS011;13247;47.504;7.382;2023-02-24T13:02:42;22.23;;;8.02;;
21816;SDS011;13247;47.504;7.382;2023-02-24T13:05:47;17.85;;;8.02;;
21816;SDS011;13247;47.504;7.382;2023-02-24T13:15:22;16.35;;;7.35;;
21816;SDS011;13247;47.504;7.382;2023-02-24T13:18:09;18.27;;;5.00;;
21816;SDS011;13247;47.504;7.382;2023-02-24T13:21:01;23.88;;;5.13;;
21816;SDS011;13247;47.504;7.382;2023-02-24T13:23:58;14.75;;;4.97;;
21816;SDS011;13247;47.504;7.382;2023-02-24T13:26:44;25.10;;;5.00;;
21816;SDS011;13247;47.504;7.382;2023-02-24T13:29:29;20.80;;;5.88;;
21816;SDS011;13247;47.504;7.382;2023-02-24T13:32:29;15.15;;;5.00;;
21816;SDS011;13247;47.504;7.382;2023-02-24T13:38:07;18.60;;;6.60;;
21816;SDS011;13247;47.504;7.382;2023-02-24T13:41:07;23.10;;;6.13;;
21816;SDS011;13247;47.504;7.382;2023-02-24T13:44:26;23.58;;;5.85;;
21816;SDS011;13247;47.504;7.382;2023-02-24T13:47:16;24.98;;;5.50;;
21816;SDS011;13247;47.504;7.382;2023-02-24T13:50:30;17.40;;;5.32;;
21816;SDS011;13247;47.504;7.382;2023-02-24T14:02:58;21.05;;;5.22;;
21816;SDS011;13247;47.504;7.382;2023-02-24T14:05:43;14.60;;;4.65;;
21816;SDS011;13247;47.504;7.382;2023-02-24T14:11:22;22.35;;;4.88;;
21816;SDS011;13247;47.504;7.382;2023-02-24T14:14:12;13.77;;;4.95;;
21816;SDS011;13247;47.504;7.382;2023-02-24T14:17:00;22.02;;;5.57;;
21816;SDS011;13247;47.504;7.382;2023-02-24T14:19:45;21.63;;;5.20;;
21816;SDS011;13247;47.504;7.382;2023-02-24T14:22:29;19.80;;;4.93;;
21816;SDS011;13247;47.504;7.382;2023-02-24T14:25:15;20.70;;;5.97;;
21816;SDS011;13247;47.504;7.382;2023-02-24T14:28:00;14.05;;;5.03;;
21816;SDS011;13247;47.504;7.382;2023-02-24T14:30:49;18.35;;;5.18;;
21816;SDS011;13247;47.504;7.382;2023-02-24T14:33:38;17.75;;;5.03;;
21816;SDS011;13247;47.504;7.382;2023-02-24T14:36:26;13.20;;;4.88;;
21816;SDS011;13247;47.504;7.382;2023-02-24T14:39:28;12.88;;;5.18;;
21816;SDS011;13247;47.504;7.382;2023-02-24T14:42:14;12.13;;;4.78;;
21816;SDS011;13247;47.504;7.382;2023-02-24T14:44:59;16.48;;;3.70;;
21816;SDS011;13247;47.504;7.382;2023-02-24T14:47:43;14.88;;;4.43;;
21816;SDS011;13247;47.504;7.382;2023-02-24T14:50:29;24.08;;;5.80;;
21816;SDS011;13247;47.504;7.382;2023-02-24T14:53:18;20.80;;;3.63;;
21816;SDS011;13247;47.504;7.382;2023-02-24T14:56:07;12.73;;;4.32;;
21816;SDS011;13247;47.504;7.382;2023-02-24T14:58:57;18.35;;;4.13;;
21816;SDS011;13247;47.504;7.382;2023-02-24T15:01:46;13.55;;;4.88;;
21816;SDS011;13247;47.504;7.382;2023-02-24T15:10:26;12.38;;;3.35;;
21816;SDS011;13247;47.504;7.382;2023-02-24T15:16:05;11.35;;;4.60;;
21816;SDS011;13247;47.504;7.382;2023-02-24T15:19:00;16.20;;;4.47;;
21816;SDS011;13247;47.504;7.382;2023-02-24T15:21:45;10.20;;;3.78;;
21816;SDS011;13247;47.504;7.382;2023-02-24T15:24:31;13.15;;;4.10;;
21816;SDS011;13247;47.504;7.382;2023-02-24T15:27:18;19.02;;;4.47;;
21816;SDS011;13247;47.504;7.382;2023-02-24T15:30:07;18.77;;;5.97;;
21816;SDS011;13247;47.504;7.382;2023-02-24T15:33:26;13.52;;;4.97;;
21816;SDS011;13247;47.504;7.382;2023-02-24T15:36:18;16.58;;;4.78;;
21816;SDS011;13247;47.504;7.382;2023-02-24T15:39:06;20.75;;;5.22;;
21816;SDS011;13247;47.504;7.382;2023-02-24T15:45:24;14.02;;;3.75;;
21816;SDS011;13247;47.504;7.382;2023-02-24T15:48:18;10.15;;;4.18;;
21816;SDS011;13247;47.504;7.382;2023-02-24T15:51:04;26.30;;;5.65;;
21816;SDS011;13247;47.504;7.382;2023-02-24T15:53:49;17.10;;;5.05;;
21816;SDS011;13247;47.504;7.382;2023-02-24T15:56:34;14.55;;;4.05;;
21816;SDS011;13247;47.504;7.382;2023-02-24T15:59:19;19.27;;;5.20;;
21816;SDS011;13247;47.504;7.382;2023-02-24T16:02:10;14.32;;;5.00;;
21816;SDS011;13247;47.504;7.382;2023-02-24T16:04:58;13.05;;;4.55;;
21816;SDS011;13247;47.504;7.382;2023-02-24T16:07:43;13.40;;;4.40;;
21816;SDS011;13247;47.504;7.382;2023-02-24T16:10:29;12.77;;;4.88;;
21816;SDS011;13247;47.504;7.382;2023-02-24T16:13:15;14.10;;;5.47;;
21816;SDS011;13247;47.504;7.382;2023-02-24T16:16:04;12.05;;;3.83;;
21816;SDS011;13247;47.504;7.382;2023-02-24T16:18:50;14.20;;;4.85;;
21816;SDS011;13247;47.504;7.382;2023-02-24T16:21:35;21.08;;;5.38;;
21816;SDS011;13247;47.504;7.382;2023-02-24T16:24:19;16.95;;;5.60;;
21816;SDS011;13247;47.504;7.382;2023-02-24T16:27:04;16.08;;;4.93;;
21816;SDS011;13247;47.504;7.382;2023-02-24T16:29:48;24.50;;;6.10;;
21816;SDS011;13247;47.504;7.382;2023-02-24T16:32:33;21.35;;;5.85;;
21816;SDS011;13247;47.504;7.382;2023-02-24T16:35:18;26.83;;;7.55;;
21816;SDS011;13247;47.504;7.382;2023-02-24T16:38:03;57.97;;;22.85;;
21816;SDS011;13247;47.504;7.382;2023-02-24T16:40:48;18.35;;;6.18;;
21816;SDS011;13247;47.504;7.382;2023-02-24T16:43:33;13.98;;;4.72;;
21816;SDS011;13247;47.504;7.382;2023-02-24T16:46:20;13.30;;;5.47;;
21816;SDS011;13247;47.504;7.382;2023-02-24T16:49:06;10.98;;;4.20;;
21816;SDS011;13247;47.504;7.382;2023-02-24T16:51:58;21.77;;;5.47;;
21816;SDS011;13247;47.504;7.382;2023-02-24T16:54:44;17.50;;;4.60;;
21816;SDS011;13247;47.504;7.382;2023-02-24T16:57:30;14.15;;;4.25;;
21816;SDS011;13247;47.504;7.382;2023-02-24T17:00:15;10.52;;;4.72;;
21816;SDS011;13247;47.504;7.382;2023-02-24T17:03:05;12.00;;;4.70;;
21816;SDS011;13247;47.504;7.382;2023-02-24T17:06:02;20.58;;;5.18;;
21816;SDS011;13247;47.504;7.382;2023-02-24T17:08:47;11.30;;;4.65;;
21816;SDS011;13247;47.504;7.382;2023-02-24T17:11:32;15.77;;;6.20;;
21816;SDS011;13247;47.504;7.382;2023-02-24T17:14:17;19.70;;;5.72;;
21816;SDS011;13247;47.504;7.382;2023-02-24T17:17:03;12.15;;;4.10;;
21816;SDS011;13247;47.504;7.382;2023-02-24T17:19:48;13.23;;;3.95;;
21816;SDS011;13247;47.504;7.382;2023-02-24T17:22:33;11.73;;;3.83;;
21816;SDS011;13247;47.504;7.382;2023-02-24T17:25:20;11.75;;;3.72;;
21816;SDS011;13247;47.504;7.382;2023-02-24T17:28:09;13.70;;;4.45;;
21816;SDS011;13247;47.504;7.382;2023-02-24T17:30:54;8.82;;;3.00;;
21816;SDS011;13247;47.504;7.382;2023-02-24T17:33:38;14.00;;;3.20;;
21816;SDS011;13247;47.504;7.382;2023-02-24T17:36:23;13.55;;;4.18;;
21816;SDS011;13247;47.504;7.382;2023-02-24T17:39:09;15.48;;;4.32;;
21816;SDS011;13247;47.504;7.382;2023-02-24T17:41:53;10.20;;;3.83;;
21816;SDS011;13247;47.504;7.382;2023-02-24T17:44:38;17.85;;;3.88;;
21816;SDS011;13247;47.504;7.382;2023-02-24T17:47:23;24.98;;;4.05;;
21816;SDS011;13247;47.504;7.382;2023-02-24T17:50:09;11.40;;;4.38;;
21816;SDS011;13247;47.504;7.382;2023-02-24T17:52:55;12.93;;;4.55;;
21816;SDS011;13247;47.504;7.382;2023-02-24T17:55:39;16.48;;;5.57;;
21816;SDS011;13247;47.504;7.382;2023-02-24T17:58:25;13.75;;;4.47;;
21816;SDS011;13247;47.504;7.382;2023-02-24T18:01:09;14.57;;;4.72;;
21816;SDS011;13247;47.504;7.382;2023-02-24T18:03:54;14.63;;;5.10;;
21816;SDS011;13247;47.504;7.382;2023-02-24T18:06:42;15.13;;;5.70;;
21816;SDS011;13247;47.504;7.382;2023-02-24T18:09:27;16.80;;;5.57;;
21816;SDS011;13247;47.504;7.382;2023-02-24T18:12:12;16.08;;;6.20;;
21816;SDS011;13247;47.504;7.382;2023-02-24T18:14:56;28.30;;;16.77;;
21816;SDS011;13247;47.504;7.382;2023-02-24T18:17:41;16.92;;;6.15;;
21816;SDS011;13247;47.504;7.382;2023-02-24T18:20:25;12.90;;;5.40;;
21816;SDS011;13247;47.504;7.382;2023-02-24T18:23:10;23.83;;;4.85;;
21816;SDS011;13247;47.504;7.382;2023-02-24T18:25:59;25.20;;;15.05;;
21816;SDS011;13247;47.504;7.382;2023-02-24T18:28:45;19.95;;;5.72;;
21816;SDS011;13247;47.504;7.382;2023-02-24T18:31:30;30.92;;;16.70;;
21816;SDS011;13247;47.504;7.382;2023-02-24T18:34:16;28.00;;;12.65;;
21816;SDS011;13247;47.504;7.382;2023-02-24T18:37:00;18.25;;;6.40;;
21816;SDS011;13247;47.504;7.382;2023-02-24T18:39:45;14.00;;;6.22;;
21816;SDS011;13247;47.504;7.382;2023-02-24T18:42:30;17.42;;;6.35;;
21816;SDS011;13247;47.504;7.382;2023-02-24T18:45:14;16.10;;;5.50;;